sensor_id;sensor_type;location;lat;lon;timestamp;P1;durP1;ratioP1;P2;durP2;ratioP2
73682;SDS011;72538;48.146;11.740;2024-03-02T00:00:18;14.37;;;12.87;;
73682;SDS011;72538;48.146;11.740;2024-03-02T00:02:47;13.73;;;12.03;;
73682;SDS011;72538;48.146;11.740;2024-03-02T00:05:20;15.20;;;13.03;;
73682;SDS011;72538;48.146;11.740;2024-03-02T00:08:08;13.87;;;11.90;;
73682;SDS011;72538;48.146;11.740;2024-03-02T00:10:16;14.37;;;12.43;;
73682;SDS011;72538;48.146;11.740;2024-03-02T00:12:43;13.20;;;11.87;;
73682;SDS011;72538;48.146;11.740;2024-03-02T00:17:42;12.70;;;11.17;;
73682;SDS011;72538;48.146;11.740;2024-03-02T00:20:09;12.40;;;11.10;;
73682;SDS011;72538;48.146;11.740;2024-03-02T00:22:36;15.63;;;12.43;;
73682;SDS011;72538;48.146;11.740;2024-03-02T00:25:03;14.60;;;12.10;;
73682;SDS011;72538;48.146;11.740;2024-03-02T00:27:29;14.73;;;13.23;;
73682;SDS011;72538;48.146;11.740;2024-03-02T00:29:55;14.73;;;12.70;;
73682;SDS011;72538;48.146;11.740;2024-03-02T00:32:22;17.23;;;13.50;;
73682;SDS011;72538;48.146;11.740;2024-03-02T00:34:48;15.63;;;13.67;;
73682;SDS011;72538;48.146;11.740;2024-03-02T00:37:15;18.90;;;14.00;;
73682;SDS011;72538;48.146;11.740;2024-03-02T00:39:41;16.00;;;14.30;;
73682;SDS011;72538;48.146;11.740;2024-03-02T00:42:07;18.47;;;14.13;;
73682;SDS011;72538;48.146;11.740;2024-03-02T00:44:34;15.87;;;14.13;;
73682;SDS011;72538;48.146;11.740;2024-03-02T00:47:01;16.77;;;14.13;;
73682;SDS011;72538;48.146;11.740;2024-03-02T00:49:28;17.67;;;14.57;;
73682;SDS011;72538;48.146;11.740;2024-03-02T00:51:54;14.70;;;13.10;;
73682;SDS011;72538;48.146;11.740;2024-03-02T00:56:50;15.20;;;13.60;;
73682;SDS011;72538;48.146;11.740;2024-03-02T00:59:16;17.13;;;13.80;;
73682;SDS011;72538;48.146;11.740;2024-03-02T01:01:42;15.40;;;13.80;;
73682;SDS011;72538;48.146;11.740;2024-03-02T01:04:09;15.40;;;13.73;;
73682;SDS011;72538;48.146;11.740;2024-03-02T01:06:35;15.47;;;13.03;;
73682;SDS011;72538;48.146;11.740;2024-03-02T01:09:02;15.63;;;14.03;;
73682;SDS011;72538;48.146;11.740;2024-03-02T01:11:30;14.67;;;13.03;;
73682;SDS011;72538;48.146;11.740;2024-03-02T01:13:56;16.23;;;13.43;;
73682;SDS011;72538;48.146;11.740;2024-03-02T01:16:22;16.20;;;14.43;;
73682;SDS011;72538;48.146;11.740;2024-03-02T01:18:48;16.17;;;14.47;;
73682;SDS011;72538;48.146;11.740;2024-03-02T01:21:14;14.70;;;13.20;;
73682;SDS011;72538;48.146;11.740;2024-03-02T01:23:41;15.53;;;13.93;;
73682;SDS011;72538;48.146;11.740;2024-03-02T01:26:07;15.17;;;13.57;;
73682;SDS011;72538;48.146;11.740;2024-03-02T01:28:33;16.90;;;14.03;;
73682;SDS011;72538;48.146;11.740;2024-03-02T01:30:59;17.13;;;14.53;;
73682;SDS011;72538;48.146;11.740;2024-03-02T01:33:27;15.77;;;13.57;;
73682;SDS011;72538;48.146;11.740;2024-03-02T01:35:53;16.90;;;14.23;;
73682;SDS011;72538;48.146;11.740;2024-03-02T01:38:19;15.47;;;13.57;;
73682;SDS011;72538;48.146;11.740;2024-03-02T01:40:46;14.53;;;12.93;;
73682;SDS011;72538;48.146;11.740;2024-03-02T01:43:12;15.43;;;13.80;;
73682;SDS011;72538;48.146;11.740;2024-03-02T01:45:38;15.47;;;13.87;;
73682;SDS011;72538;48.146;11.740;2024-03-02T01:48:06;14.87;;;13.33;;
73682;SDS011;72538;48.146;11.740;2024-03-02T01:50:33;14.53;;;13.03;;
73682;SDS011;72538;48.146;11.740;2024-03-02T01:52:59;13.70;;;12.30;;
73682;SDS011;72538;48.146;11.740;2024-03-02T01:55:26;14.53;;;12.70;;
73682;SDS011;72538;48.146;11.740;2024-03-02T01:57:53;15.40;;;13.37;;
73682;SDS011;72538;48.146;11.740;2024-03-02T02:00:22;14.23;;;12.83;;
73682;SDS011;72538;48.146;11.740;2024-03-02T02:02:50;13.80;;;12.30;;
73682;SDS011;72538;48.146;11.740;2024-03-02T02:05:16;14.13;;;12.57;;
73682;SDS011;72538;48.146;11.740;2024-03-02T02:07:43;14.57;;;12.20;;
73682;SDS011;72538;48.146;11.740;2024-03-02T02:10:12;14.93;;;13.43;;
73682;SDS011;72538;48.146;11.740;2024-03-02T02:12:39;14.47;;;12.80;;
73682;SDS011;72538;48.146;11.740;2024-03-02T02:17:50;16.60;;;12.80;;
73682;SDS011;72538;48.146;11.740;2024-03-02T02:20:16;16.60;;;13.40;;
73682;SDS011;72538;48.146;11.740;2024-03-02T02:23:01;14.47;;;12.97;;
73682;SDS011;72538;48.146;11.740;2024-03-02T02:25:28;14.83;;;13.43;;
73682;SDS011;72538;48.146;11.740;2024-03-02T02:27:54;14.27;;;12.87;;
73682;SDS011;72538;48.146;11.740;2024-03-02T02:30:26;14.53;;;13.03;;
73682;SDS011;72538;48.146;11.740;2024-03-02T02:32:49;13.80;;;12.27;;
73682;SDS011;72538;48.146;11.740;2024-03-02T02:35:15;14.93;;;13.43;;
73682;SDS011;72538;48.146;11.740;2024-03-02T02:37:41;14.13;;;12.73;;
73682;SDS011;72538;48.146;11.740;2024-03-02T02:40:08;14.87;;;13.03;;
73682;SDS011;72538;48.146;11.740;2024-03-02T02:42:34;16.60;;;13.33;;
73682;SDS011;72538;48.146;11.740;2024-03-02T02:45:01;14.90;;;13.27;;
73682;SDS011;72538;48.146;11.740;2024-03-02T02:47:27;17.53;;;15.43;;
73682;SDS011;72538;48.146;11.740;2024-03-02T02:49:55;16.30;;;14.60;;
73682;SDS011;72538;48.146;11.740;2024-03-02T02:52:21;15.73;;;14.10;;
73682;SDS011;72538;48.146;11.740;2024-03-02T02:54:47;15.80;;;14.10;;
73682;SDS011;72538;48.146;11.740;2024-03-02T02:57:13;16.10;;;14.50;;
73682;SDS011;72538;48.146;11.740;2024-03-02T02:59:39;15.40;;;13.37;;
73682;SDS011;72538;48.146;11.740;2024-03-02T03:02:05;17.80;;;15.43;;
73682;SDS011;72538;48.146;11.740;2024-03-02T03:04:32;16.23;;;14.47;;
73682;SDS011;72538;48.146;11.740;2024-03-02T03:06:58;17.13;;;15.33;;
73682;SDS011;72538;48.146;11.740;2024-03-02T03:09:24;18.90;;;16.57;;
73682;SDS011;72538;48.146;11.740;2024-03-02T03:11:51;17.57;;;15.53;;
73682;SDS011;72538;48.146;11.740;2024-03-02T03:14:17;16.43;;;14.40;;
73682;SDS011;72538;48.146;11.740;2024-03-02T03:16:44;17.30;;;14.83;;
73682;SDS011;72538;48.146;11.740;2024-03-02T03:19:11;17.13;;;14.33;;
73682;SDS011;72538;48.146;11.740;2024-03-02T03:21:37;18.03;;;14.60;;
73682;SDS011;72538;48.146;11.740;2024-03-02T03:24:04;17.03;;;15.23;;
73682;SDS011;72538;48.146;11.740;2024-03-02T03:26:30;18.63;;;15.73;;
73682;SDS011;72538;48.146;11.740;2024-03-02T03:28:56;15.70;;;14.10;;
73682;SDS011;72538;48.146;11.740;2024-03-02T03:31:24;18.17;;;14.53;;
73682;SDS011;72538;48.146;11.740;2024-03-02T03:33:50;18.37;;;14.50;;
73682;SDS011;72538;48.146;11.740;2024-03-02T03:36:17;17.50;;;14.33;;
73682;SDS011;72538;48.146;11.740;2024-03-02T03:38:43;19.37;;;16.10;;
73682;SDS011;72538;48.146;11.740;2024-03-02T03:41:09;18.70;;;15.43;;
73682;SDS011;72538;48.146;11.740;2024-03-02T03:43:35;17.40;;;14.37;;
73682;SDS011;72538;48.146;11.740;2024-03-02T03:46:01;17.30;;;15.30;;
73682;SDS011;72538;48.146;11.740;2024-03-02T03:48:28;17.17;;;15.00;;
73682;SDS011;72538;48.146;11.740;2024-03-02T03:50:56;17.10;;;15.03;;
73682;SDS011;72538;48.146;11.740;2024-03-02T03:53:22;18.33;;;14.20;;
73682;SDS011;72538;48.146;11.740;2024-03-02T03:55:50;15.87;;;14.03;;
73682;SDS011;72538;48.146;11.740;2024-03-02T03:58:16;17.30;;;15.50;;
73682;SDS011;72538;48.146;11.740;2024-03-02T04:00:44;16.70;;;14.87;;
73682;SDS011;72538;48.146;11.740;2024-03-02T04:03:10;18.83;;;16.37;;
73682;SDS011;72538;48.146;11.740;2024-03-02T04:05:36;18.10;;;16.07;;
73682;SDS011;72538;48.146;11.740;2024-03-02T04:08:03;17.60;;;15.80;;
73682;SDS011;72538;48.146;11.740;2024-03-02T04:10:29;17.70;;;15.90;;
73682;SDS011;72538;48.146;11.740;2024-03-02T04:12:56;18.77;;;15.53;;
73682;SDS011;72538;48.146;11.740;2024-03-02T04:15:22;19.70;;;16.03;;
73682;SDS011;72538;48.146;11.740;2024-03-02T04:17:51;20.37;;;17.30;;
73682;SDS011;72538;48.146;11.740;2024-03-02T04:20:17;21.10;;;17.50;;
73682;SDS011;72538;48.146;11.740;2024-03-02T04:22:43;19.03;;;16.90;;
73682;SDS011;72538;48.146;11.740;2024-03-02T04:25:09;22.30;;;17.73;;
73682;SDS011;72538;48.146;11.740;2024-03-02T04:27:35;19.33;;;16.30;;
73682;SDS011;72538;48.146;11.740;2024-03-02T04:30:01;19.00;;;16.80;;
73682;SDS011;72538;48.146;11.740;2024-03-02T04:32:28;18.33;;;16.43;;
73682;SDS011;72538;48.146;11.740;2024-03-02T04:34:54;18.17;;;15.13;;
73682;SDS011;72538;48.146;11.740;2024-03-02T04:37:20;19.13;;;15.50;;
73682;SDS011;72538;48.146;11.740;2024-03-02T04:39:46;17.50;;;15.03;;
73682;SDS011;72538;48.146;11.740;2024-03-02T04:42:12;16.90;;;15.13;;
73682;SDS011;72538;48.146;11.740;2024-03-02T04:44:38;19.47;;;16.17;;
73682;SDS011;72538;48.146;11.740;2024-03-02T04:47:05;17.77;;;15.40;;
73682;SDS011;72538;48.146;11.740;2024-03-02T04:49:31;18.90;;;15.30;;
73682;SDS011;72538;48.146;11.740;2024-03-02T04:51:57;20.60;;;15.73;;
73682;SDS011;72538;48.146;11.740;2024-03-02T04:54:23;19.23;;;17.10;;
73682;SDS011;72538;48.146;11.740;2024-03-02T04:56:49;18.73;;;16.10;;
73682;SDS011;72538;48.146;11.740;2024-03-02T04:59:19;18.07;;;15.30;;
73682;SDS011;72538;48.146;11.740;2024-03-02T05:01:45;17.87;;;15.97;;
73682;SDS011;72538;48.146;11.740;2024-03-02T05:04:13;20.87;;;16.03;;
73682;SDS011;72538;48.146;11.740;2024-03-02T05:06:39;19.13;;;16.40;;
73682;SDS011;72538;48.146;11.740;2024-03-02T05:09:06;20.07;;;17.17;;
73682;SDS011;72538;48.146;11.740;2024-03-02T05:11:32;19.37;;;16.47;;
73682;SDS011;72538;48.146;11.740;2024-03-02T05:14:06;21.90;;;17.10;;
73682;SDS011;72538;48.146;11.740;2024-03-02T05:16:33;21.17;;;17.90;;
73682;SDS011;72538;48.146;11.740;2024-03-02T05:19:00;19.80;;;17.53;;
73682;SDS011;72538;48.146;11.740;2024-03-02T05:21:26;22.67;;;17.57;;
73682;SDS011;72538;48.146;11.740;2024-03-02T05:23:52;20.63;;;17.93;;
73682;SDS011;72538;48.146;11.740;2024-03-02T05:26:18;20.43;;;18.10;;
73682;SDS011;72538;48.146;11.740;2024-03-02T05:28:44;23.17;;;19.07;;
73682;SDS011;72538;48.146;11.740;2024-03-02T05:31:11;21.10;;;17.97;;
73682;SDS011;72538;48.146;11.740;2024-03-02T05:33:39;18.43;;;15.70;;
73682;SDS011;72538;48.146;11.740;2024-03-02T05:36:06;20.57;;;17.60;;
73682;SDS011;72538;48.146;11.740;2024-03-02T05:38:35;21.53;;;17.50;;
73682;SDS011;72538;48.146;11.740;2024-03-02T05:41:01;20.90;;;17.83;;
73682;SDS011;72538;48.146;11.740;2024-03-02T05:43:28;20.33;;;18.07;;
73682;SDS011;72538;48.146;11.740;2024-03-02T05:45:54;21.87;;;18.30;;
73682;SDS011;72538;48.146;11.740;2024-03-02T05:48:20;20.10;;;17.90;;
73682;SDS011;72538;48.146;11.740;2024-03-02T05:50:46;19.27;;;17.10;;
73682;SDS011;72538;48.146;11.740;2024-03-02T05:53:13;20.77;;;18.23;;
73682;SDS011;72538;48.146;11.740;2024-03-02T05:55:39;19.57;;;17.47;;
73682;SDS011;72538;48.146;11.740;2024-03-02T05:58:05;18.60;;;16.60;;
73682;SDS011;72538;48.146;11.740;2024-03-02T06:00:33;19.13;;;16.43;;
73682;SDS011;72538;48.146;11.740;2024-03-02T06:02:59;21.90;;;18.97;;
73682;SDS011;72538;48.146;11.740;2024-03-02T06:05:25;19.23;;;17.23;;
73682;SDS011;72538;48.146;11.740;2024-03-02T06:07:51;19.20;;;16.37;;
73682;SDS011;72538;48.146;11.740;2024-03-02T06:10:17;18.57;;;16.67;;
73682;SDS011;72538;48.146;11.740;2024-03-02T06:12:44;19.10;;;16.60;;
73682;SDS011;72538;48.146;11.740;2024-03-02T06:15:10;19.93;;;17.83;;
73682;SDS011;72538;48.146;11.740;2024-03-02T06:17:36;20.67;;;17.17;;
73682;SDS011;72538;48.146;11.740;2024-03-02T06:20:03;21.73;;;18.07;;
73682;SDS011;72538;48.146;11.740;2024-03-02T06:22:30;20.70;;;16.70;;
73682;SDS011;72538;48.146;11.740;2024-03-02T06:24:56;19.50;;;17.30;;
73682;SDS011;72538;48.146;11.740;2024-03-02T06:27:22;18.67;;;16.70;;
73682;SDS011;72538;48.146;11.740;2024-03-02T06:29:48;19.43;;;17.43;;
73682;SDS011;72538;48.146;11.740;2024-03-02T06:32:14;19.80;;;17.80;;
73682;SDS011;72538;48.146;11.740;2024-03-02T06:34:40;20.47;;;18.23;;
73682;SDS011;72538;48.146;11.740;2024-03-02T06:37:06;20.33;;;17.17;;
73682;SDS011;72538;48.146;11.740;2024-03-02T06:39:32;19.87;;;17.07;;
73682;SDS011;72538;48.146;11.740;2024-03-02T06:42:00;20.93;;;18.07;;
73682;SDS011;72538;48.146;11.740;2024-03-02T06:44:26;19.83;;;17.67;;
73682;SDS011;72538;48.146;11.740;2024-03-02T06:46:52;25.27;;;19.00;;
73682;SDS011;72538;48.146;11.740;2024-03-02T06:49:18;20.73;;;18.33;;
73682;SDS011;72538;48.146;11.740;2024-03-02T06:51:45;21.00;;;18.70;;
73682;SDS011;72538;48.146;11.740;2024-03-02T06:54:11;21.53;;;18.73;;
73682;SDS011;72538;48.146;11.740;2024-03-02T06:56:37;20.07;;;17.30;;
73682;SDS011;72538;48.146;11.740;2024-03-02T06:59:05;21.63;;;18.60;;
73682;SDS011;72538;48.146;11.740;2024-03-02T07:01:31;20.67;;;18.40;;
73682;SDS011;72538;48.146;11.740;2024-03-02T07:03:57;21.10;;;18.07;;
73682;SDS011;72538;48.146;11.740;2024-03-02T07:06:23;20.37;;;18.17;;
73682;SDS011;72538;48.146;11.740;2024-03-02T07:08:49;19.77;;;17.57;;
73682;SDS011;72538;48.146;11.740;2024-03-02T07:11:15;20.80;;;18.23;;
73682;SDS011;72538;48.146;11.740;2024-03-02T07:13:42;23.10;;;20.07;;
73682;SDS011;72538;48.146;11.740;2024-03-02T07:16:08;21.37;;;19.07;;
73682;SDS011;72538;48.146;11.740;2024-03-02T07:18:38;30.33;;;22.90;;
73682;SDS011;72538;48.146;11.740;2024-03-02T07:21:07;19.83;;;17.73;;
73682;SDS011;72538;48.146;11.740;2024-03-02T07:23:33;18.37;;;15.30;;
73682;SDS011;72538;48.146;11.740;2024-03-02T07:26:00;18.60;;;16.60;;
73682;SDS011;72538;48.146;11.740;2024-03-02T07:28:27;17.13;;;15.37;;
73682;SDS011;72538;48.146;11.740;2024-03-02T07:31:00;17.77;;;14.23;;
73682;SDS011;72538;48.146;11.740;2024-03-02T07:33:27;17.97;;;15.57;;
73682;SDS011;72538;48.146;11.740;2024-03-02T07:35:57;24.67;;;22.07;;
73682;SDS011;72538;48.146;11.740;2024-03-02T07:38:21;20.13;;;17.00;;
73682;SDS011;72538;48.146;11.740;2024-03-02T07:40:48;18.67;;;16.70;;
73682;SDS011;72538;48.146;11.740;2024-03-02T07:43:17;18.07;;;16.07;;
73682;SDS011;72538;48.146;11.740;2024-03-02T07:45:44;17.07;;;15.37;;
73682;SDS011;72538;48.146;11.740;2024-03-02T07:48:10;15.50;;;13.83;;
73682;SDS011;72538;48.146;11.740;2024-03-02T07:50:36;15.80;;;13.73;;
73682;SDS011;72538;48.146;11.740;2024-03-02T07:53:03;15.83;;;14.00;;
73682;SDS011;72538;48.146;11.740;2024-03-02T07:55:29;16.73;;;14.93;;
73682;SDS011;72538;48.146;11.740;2024-03-02T07:57:56;15.50;;;14.00;;
73682;SDS011;72538;48.146;11.740;2024-03-02T08:00:23;16.70;;;14.97;;
73682;SDS011;72538;48.146;11.740;2024-03-02T08:02:51;17.27;;;15.47;;
73682;SDS011;72538;48.146;11.740;2024-03-02T08:05:18;15.97;;;13.80;;
73682;SDS011;72538;48.146;11.740;2024-03-02T08:07:47;18.40;;;15.40;;
73682;SDS011;72538;48.146;11.740;2024-03-02T08:10:13;16.70;;;14.27;;
73682;SDS011;72538;48.146;11.740;2024-03-02T08:12:39;15.43;;;13.83;;
73682;SDS011;72538;48.146;11.740;2024-03-02T08:15:06;13.97;;;12.57;;
73682;SDS011;72538;48.146;11.740;2024-03-02T08:17:32;14.13;;;12.77;;
73682;SDS011;72538;48.146;11.740;2024-03-02T08:19:58;16.00;;;13.77;;
73682;SDS011;72538;48.146;11.740;2024-03-02T08:22:24;15.20;;;13.70;;
73682;SDS011;72538;48.146;11.740;2024-03-02T08:24:51;14.50;;;13.00;;
73682;SDS011;72538;48.146;11.740;2024-03-02T08:27:19;15.03;;;13.50;;
73682;SDS011;72538;48.146;11.740;2024-03-02T08:29:45;14.70;;;13.20;;
73682;SDS011;72538;48.146;11.740;2024-03-02T08:32:11;15.33;;;13.83;;
73682;SDS011;72538;48.146;11.740;2024-03-02T08:34:37;15.40;;;13.80;;
73682;SDS011;72538;48.146;11.740;2024-03-02T08:37:03;16.07;;;14.20;;
73682;SDS011;72538;48.146;11.740;2024-03-02T08:39:30;16.60;;;14.97;;
73682;SDS011;72538;48.146;11.740;2024-03-02T08:41:56;16.30;;;14.73;;
73682;SDS011;72538;48.146;11.740;2024-03-02T08:44:22;17.07;;;15.37;;
73682;SDS011;72538;48.146;11.740;2024-03-02T08:46:48;16.00;;;13.87;;
73682;SDS011;72538;48.146;11.740;2024-03-02T08:49:14;16.03;;;14.40;;
73682;SDS011;72538;48.146;11.740;2024-03-02T08:51:40;15.30;;;13.80;;
73682;SDS011;72538;48.146;11.740;2024-03-02T08:54:08;15.23;;;13.73;;
73682;SDS011;72538;48.146;11.740;2024-03-02T08:56:34;16.13;;;14.17;;
73682;SDS011;72538;48.146;11.740;2024-03-02T08:59:01;14.97;;;13.57;;
73682;SDS011;72538;48.146;11.740;2024-03-02T09:01:27;14.60;;;13.30;;
73682;SDS011;72538;48.146;11.740;2024-03-02T09:03:53;16.37;;;14.07;;
73682;SDS011;72538;48.146;11.740;2024-03-02T09:06:19;15.33;;;13.77;;
73682;SDS011;72538;48.146;11.740;2024-03-02T09:08:47;16.17;;;14.47;;
73682;SDS011;72538;48.146;11.740;2024-03-02T09:11:15;17.27;;;15.57;;
73682;SDS011;72538;48.146;11.740;2024-03-02T09:13:41;18.07;;;16.20;;
73682;SDS011;72538;48.146;11.740;2024-03-02T09:16:08;19.83;;;16.50;;
73682;SDS011;72538;48.146;11.740;2024-03-02T09:18:36;17.20;;;15.40;;
73682;SDS011;72538;48.146;11.740;2024-03-02T09:21:03;16.95;;;15.18;;
73682;SDS011;72538;48.146;11.740;2024-03-02T09:23:30;18.00;;;16.17;;
73682;SDS011;72538;48.146;11.740;2024-03-02T09:25:56;18.35;;;15.72;;
73682;SDS011;72538;48.146;11.740;2024-03-02T09:28:22;17.37;;;15.58;;
73682;SDS011;72538;48.146;11.740;2024-03-02T09:30:48;16.95;;;15.18;;
73682;SDS011;72538;48.146;11.740;2024-03-02T09:33:14;20.10;;;16.45;;
73682;SDS011;72538;48.146;11.740;2024-03-02T09:35:41;17.70;;;15.43;;
73682;SDS011;72538;48.146;11.740;2024-03-02T09:38:07;15.60;;;14.05;;
73682;SDS011;72538;48.146;11.740;2024-03-02T09:40:33;17.00;;;15.20;;
73682;SDS011;72538;48.146;11.740;2024-03-02T09:42:59;17.45;;;15.45;;
73682;SDS011;72538;48.146;11.740;2024-03-02T09:45:26;17.17;;;15.43;;
73682;SDS011;72538;48.146;11.740;2024-03-02T09:47:52;16.77;;;14.58;;
73682;SDS011;72538;48.146;11.740;2024-03-02T09:50:18;16.55;;;14.80;;
73682;SDS011;72538;48.146;11.740;2024-03-02T09:52:47;17.02;;;15.32;;
73682;SDS011;72538;48.146;11.740;2024-03-02T09:55:12;17.80;;;15.83;;
73682;SDS011;72538;48.146;11.740;2024-03-02T09:57:39;16.40;;;14.80;;
73682;SDS011;72538;48.146;11.740;2024-03-02T10:00:08;17.32;;;15.53;;
73682;SDS011;72538;48.146;11.740;2024-03-02T10:02:34;17.82;;;15.70;;
73682;SDS011;72538;48.146;11.740;2024-03-02T10:05:00;16.67;;;15.05;;
73682;SDS011;72538;48.146;11.740;2024-03-02T10:07:29;16.97;;;15.10;;
73682;SDS011;72538;48.146;11.740;2024-03-02T10:09:56;17.67;;;15.95;;
73682;SDS011;72538;48.146;11.740;2024-03-02T10:12:22;17.62;;;15.83;;
73682;SDS011;72538;48.146;11.740;2024-03-02T10:14:48;18.00;;;16.10;;
73682;SDS011;72538;48.146;11.740;2024-03-02T10:17:17;18.95;;;16.95;;
73682;SDS011;72538;48.146;11.740;2024-03-02T10:19:43;17.98;;;16.05;;
73682;SDS011;72538;48.146;11.740;2024-03-02T10:22:10;19.60;;;16.15;;
73682;SDS011;72538;48.146;11.740;2024-03-02T10:24:37;20.17;;;16.77;;
73682;SDS011;72538;48.146;11.740;2024-03-02T10:27:11;17.82;;;15.83;;
73682;SDS011;72538;48.146;11.740;2024-03-02T10:29:38;18.57;;;16.67;;
73682;SDS011;72538;48.146;11.740;2024-03-02T10:32:08;19.10;;;16.80;;
73682;SDS011;72538;48.146;11.740;2024-03-02T10:34:34;21.37;;;18.27;;
73682;SDS011;72538;48.146;11.740;2024-03-02T10:37:01;19.73;;;16.95;;
73682;SDS011;72538;48.146;11.740;2024-03-02T10:39:28;18.70;;;16.42;;
73682;SDS011;72538;48.146;11.740;2024-03-02T10:41:54;18.95;;;17.05;;
73682;SDS011;72538;48.146;11.740;2024-03-02T10:44:21;18.85;;;16.25;;
73682;SDS011;72538;48.146;11.740;2024-03-02T10:46:49;14.83;;;13.32;;
73682;SDS011;72538;48.146;11.740;2024-03-02T10:49:15;15.00;;;13.50;;
73682;SDS011;72538;48.146;11.740;2024-03-02T10:51:41;15.88;;;14.38;;
73682;SDS011;72538;48.146;11.740;2024-03-02T10:54:07;15.88;;;14.35;;
73682;SDS011;72538;48.146;11.740;2024-03-02T10:56:39;14.43;;;13.08;;
73682;SDS011;72538;48.146;11.740;2024-03-02T10:59:17;14.73;;;13.28;;
73682;SDS011;72538;48.146;11.740;2024-03-02T11:01:34;15.13;;;13.65;;
73682;SDS011;72538;48.146;11.740;2024-03-02T11:04:02;15.32;;;13.85;;
73682;SDS011;72538;48.146;11.740;2024-03-02T11:06:28;17.42;;;15.70;;
73682;SDS011;72538;48.146;11.740;2024-03-02T11:08:58;18.05;;;16.32;;
73682;SDS011;72538;48.146;11.740;2024-03-02T11:11:29;16.87;;;15.08;;
73682;SDS011;72538;48.146;11.740;2024-03-02T11:13:56;15.80;;;14.30;;
73682;SDS011;72538;48.146;11.740;2024-03-02T11:16:27;15.45;;;14.07;;
73682;SDS011;72538;48.146;11.740;2024-03-02T11:18:53;18.32;;;16.48;;
73682;SDS011;72538;48.146;11.740;2024-03-02T11:21:19;18.15;;;16.45;;
73682;SDS011;72538;48.146;11.740;2024-03-02T11:23:46;19.05;;;17.25;;
73682;SDS011;72538;48.146;11.740;2024-03-02T11:26:16;18.60;;;16.70;;
73682;SDS011;72538;48.146;11.740;2024-03-02T11:28:41;16.50;;;14.90;;
73682;SDS011;72538;48.146;11.740;2024-03-02T11:31:07;16.23;;;14.60;;
73682;SDS011;72538;48.146;11.740;2024-03-02T11:33:33;17.00;;;15.50;;
73682;SDS011;72538;48.146;11.740;2024-03-02T11:36:00;20.88;;;18.77;;
73682;SDS011;72538;48.146;11.740;2024-03-02T11:38:31;17.50;;;15.75;;
73682;SDS011;72538;48.146;11.740;2024-03-02T11:41:02;19.30;;;17.40;;
73682;SDS011;72538;48.146;11.740;2024-03-02T11:43:29;19.55;;;17.57;;
73682;SDS011;72538;48.146;11.740;2024-03-02T11:45:59;16.30;;;14.78;;
73682;SDS011;72538;48.146;11.740;2024-03-02T11:48:25;18.17;;;16.25;;
73682;SDS011;72538;48.146;11.740;2024-03-02T11:50:52;25.08;;;22.37;;
73682;SDS011;72538;48.146;11.740;2024-03-02T11:53:19;20.52;;;18.30;;
73682;SDS011;72538;48.146;11.740;2024-03-02T11:55:46;20.50;;;17.60;;
73682;SDS011;72538;48.146;11.740;2024-03-02T11:58:12;15.53;;;14.03;;
73682;SDS011;72538;48.146;11.740;2024-03-02T12:00:39;14.33;;;12.93;;
73682;SDS011;72538;48.146;11.740;2024-03-02T12:03:05;14.63;;;13.22;;
73682;SDS011;72538;48.146;11.740;2024-03-02T12:05:32;19.35;;;17.12;;
73682;SDS011;72538;48.146;11.740;2024-03-02T12:07:59;17.32;;;13.68;;
73682;SDS011;72538;48.146;11.740;2024-03-02T12:10:25;15.25;;;13.83;;
73682;SDS011;72538;48.146;11.740;2024-03-02T12:15:32;20.50;;;18.50;;
73682;SDS011;72538;48.146;11.740;2024-03-02T12:17:59;16.42;;;13.32;;
73682;SDS011;72538;48.146;11.740;2024-03-02T12:20:27;15.13;;;13.62;;
73682;SDS011;72538;48.146;11.740;2024-03-02T12:22:53;13.05;;;11.80;;
73682;SDS011;72538;48.146;11.740;2024-03-02T12:25:20;15.60;;;13.75;;
73682;SDS011;72538;48.146;11.740;2024-03-02T12:27:52;14.58;;;13.10;;
73682;SDS011;72538;48.146;11.740;2024-03-02T12:30:18;12.75;;;11.57;;
73682;SDS011;72538;48.146;11.740;2024-03-02T12:32:44;12.75;;;11.55;;
73682;SDS011;72538;48.146;11.740;2024-03-02T12:35:11;14.07;;;12.58;;
73682;SDS011;72538;48.146;11.740;2024-03-02T12:37:46;11.75;;;10.72;;
73682;SDS011;72538;48.146;11.740;2024-03-02T12:40:13;12.58;;;11.45;;
73682;SDS011;72538;48.146;11.740;2024-03-02T12:42:39;12.07;;;10.90;;
73682;SDS011;72538;48.146;11.740;2024-03-02T12:45:09;13.48;;;11.85;;
73682;SDS011;72538;48.146;11.740;2024-03-02T12:47:36;14.03;;;12.68;;
73682;SDS011;72538;48.146;11.740;2024-03-02T12:50:03;19.77;;;17.67;;
73682;SDS011;72538;48.146;11.740;2024-03-02T12:52:30;16.90;;;15.10;;
73682;SDS011;72538;48.146;11.740;2024-03-02T12:54:58;12.75;;;11.55;;
73682;SDS011;72538;48.146;11.740;2024-03-02T12:57:25;21.27;;;17.70;;
73682;SDS011;72538;48.146;11.740;2024-03-02T12:59:52;15.93;;;14.35;;
73682;SDS011;72538;48.146;11.740;2024-03-02T13:02:18;19.15;;;17.35;;
73682;SDS011;72538;48.146;11.740;2024-03-02T13:04:44;18.87;;;17.15;;
73682;SDS011;72538;48.146;11.740;2024-03-02T13:07:13;19.50;;;17.70;;
73682;SDS011;72538;48.146;11.740;2024-03-02T13:09:39;19.02;;;17.37;;
73682;SDS011;72538;48.146;11.740;2024-03-02T13:12:06;28.02;;;24.90;;
73682;SDS011;72538;48.146;11.740;2024-03-02T13:14:33;22.25;;;20.05;;
73682;SDS011;72538;48.146;11.740;2024-03-02T13:16:59;20.00;;;18.20;;
73682;SDS011;72538;48.146;11.740;2024-03-02T13:19:26;19.67;;;17.77;;
73682;SDS011;72538;48.146;11.740;2024-03-02T13:21:54;19.40;;;17.57;;
73682;SDS011;72538;48.146;11.740;2024-03-02T13:24:20;18.57;;;16.70;;
73682;SDS011;72538;48.146;11.740;2024-03-02T13:26:46;19.45;;;16.93;;
73682;SDS011;72538;48.146;11.740;2024-03-02T13:29:12;16.87;;;15.25;;
73682;SDS011;72538;48.146;11.740;2024-03-02T13:31:38;18.80;;;16.52;;
73682;SDS011;72538;48.146;11.740;2024-03-02T13:34:05;18.87;;;16.95;;
73682;SDS011;72538;48.146;11.740;2024-03-02T13:36:31;15.00;;;13.45;;
73682;SDS011;72538;48.146;11.740;2024-03-02T13:38:58;15.65;;;13.48;;
73682;SDS011;72538;48.146;11.740;2024-03-02T13:41:24;17.98;;;16.10;;
73682;SDS011;72538;48.146;11.740;2024-03-02T13:43:50;18.82;;;16.90;;
73682;SDS011;72538;48.146;11.740;2024-03-02T13:46:16;19.23;;;17.32;;
73682;SDS011;72538;48.146;11.740;2024-03-02T13:48:42;19.10;;;17.30;;
73682;SDS011;72538;48.146;11.740;2024-03-02T13:51:08;19.40;;;17.60;;
73682;SDS011;72538;48.146;11.740;2024-03-02T13:53:34;18.98;;;17.12;;
73682;SDS011;72538;48.146;11.740;2024-03-02T13:56:01;17.65;;;16.02;;
73682;SDS011;72538;48.146;11.740;2024-03-02T13:58:27;17.98;;;16.12;;
73682;SDS011;72538;48.146;11.740;2024-03-02T14:00:53;17.95;;;14.75;;
73682;SDS011;72538;48.146;11.740;2024-03-02T14:03:19;13.98;;;12.53;;
73682;SDS011;72538;48.146;11.740;2024-03-02T14:05:46;13.00;;;11.80;;
73682;SDS011;72538;48.146;11.740;2024-03-02T14:08:12;12.93;;;11.73;;
73682;SDS011;72538;48.146;11.740;2024-03-02T14:10:39;12.25;;;11.15;;
73682;SDS011;72538;48.146;11.740;2024-03-02T14:13:05;12.80;;;11.60;;
73682;SDS011;72538;48.146;11.740;2024-03-02T14:15:31;13.15;;;11.85;;